Williamstown, West Virginia
Current Conditions -  °F | °C
As of 11:18 PM on Wednesday 26 Nov 2014 (Local Time) from KPKB Reporting Station
Moderate Fog Moderate Fog  
Wind Chill:   Ceiling: 200
Heat Index:   Visibility: 0.25mi
Dew Point:   Wind: 0mph
Humidity: 96%   Direction: NA
Pressure: 30.05"   Gusts: NA
Location:  39.4°N, 81.45°W
Report Text: KPKB 270418Z AUTO 00000KT 1/4SM FG VV002 01/00 A3005 RMK AO2 T00060000 RVRNO
Loading
Personal Weather Stations






























Interactive Weather Map New forecast layout! Learn more

10-Day Weather Forecast

Advertisements
Track Severe Weather on mobile